sensor_id;sensor_type;location;lat;lon;timestamp;pressure;altitude;pressure_sealevel;temperature;humidity
11085;BME280;5596;46.826;8.650;2022-07-29T00:00:10;96194.63;;;17.53;100.00
11085;BME280;5596;46.826;8.650;2022-07-29T00:02:37;96189.19;;;17.48;100.00
11085;BME280;5596;46.826;8.650;2022-07-29T00:05:05;96183.47;;;17.45;100.00
11085;BME280;5596;46.826;8.650;2022-07-29T00:07:32;96189.75;;;17.50;100.00
11085;BME280;5596;46.826;8.650;2022-07-29T00:09:59;96194.34;;;17.65;100.00
11085;BME280;5596;46.826;8.650;2022-07-29T00:12:26;96195.97;;;17.71;100.00
11085;BME280;5596;46.826;8.650;2022-07-29T00:14:54;96187.50;;;17.72;100.00
11085;BME280;5596;46.826;8.650;2022-07-29T00:17:23;96179.56;;;17.71;100.00
11085;BME280;5596;46.826;8.650;2022-07-29T00:19:50;96173.31;;;17.65;100.00
11085;BME280;5596;46.826;8.650;2022-07-29T00:22:17;96171.97;;;17.53;100.00
11085;BME280;5596;46.826;8.650;2022-07-29T00:24:44;96173.34;;;17.50;100.00
11085;BME280;5596;46.826;8.650;2022-07-29T00:27:11;96173.63;;;17.49;100.00
11085;BME280;5596;46.826;8.650;2022-07-29T00:29:38;96177.41;;;17.58;100.00
11085;BME280;5596;46.826;8.650;2022-07-29T00:32:06;96173.59;;;17.59;100.00
11085;BME280;5596;46.826;8.650;2022-07-29T00:34:34;96159.94;;;17.54;100.00
11085;BME280;5596;46.826;8.650;2022-07-29T00:37:19;96168.41;;;17.62;100.00
11085;BME280;5596;46.826;8.650;2022-07-29T00:39:46;96175.25;;;17.65;100.00
11085;BME280;5596;46.826;8.650;2022-07-29T00:42:13;96173.06;;;17.62;100.00
11085;BME280;5596;46.826;8.650;2022-07-29T00:44:42;96174.94;;;17.61;100.00
11085;BME280;5596;46.826;8.650;2022-07-29T00:47:10;96163.22;;;17.56;100.00
11085;BME280;5596;46.826;8.650;2022-07-29T00:49:40;96168.13;;;17.59;100.00
11085;BME280;5596;46.826;8.650;2022-07-29T00:52:09;96155.59;;;17.63;100.00
11085;BME280;5596;46.826;8.650;2022-07-29T00:54:38;96164.31;;;17.60;100.00
11085;BME280;5596;46.826;8.650;2022-07-29T00:57:06;96153.66;;;17.53;100.00
11085;BME280;5596;46.826;8.650;2022-07-29T00:59:34;96163.81;;;17.48;100.00
11085;BME280;5596;46.826;8.650;2022-07-29T01:02:02;96156.16;;;17.50;100.00
11085;BME280;5596;46.826;8.650;2022-07-29T01:04:29;96159.72;;;17.50;100.00
11085;BME280;5596;46.826;8.650;2022-07-29T01:07:00;96158.31;;;17.53;100.00
11085;BME280;5596;46.826;8.650;2022-07-29T01:09:28;96163.22;;;17.56;100.00
11085;BME280;5596;46.826;8.650;2022-07-29T01:11:57;96159.97;;;17.49;100.00
11085;BME280;5596;46.826;8.650;2022-07-29T01:14:26;96149.88;;;17.44;100.00
11085;BME280;5596;46.826;8.650;2022-07-29T01:16:59;96146.34;;;17.38;100.00
11085;BME280;5596;46.826;8.650;2022-07-29T01:19:48;96147.16;;;17.44;100.00
11085;BME280;5596;46.826;8.650;2022-07-29T01:22:27;96151.25;;;17.47;100.00
11085;BME280;5596;46.826;8.650;2022-07-29T01:25:06;96143.09;;;17.42;100.00
11085;BME280;5596;46.826;8.650;2022-07-29T01:27:48;96143.34;;;17.40;100.00
11085;BME280;5596;46.826;8.650;2022-07-29T01:30:21;96138.44;;;17.42;100.00
11085;BME280;5596;46.826;8.650;2022-07-29T01:32:55;96129.97;;;17.38;100.00
11085;BME280;5596;46.826;8.650;2022-07-29T01:35:25;96126.75;;;17.31;100.00
11085;BME280;5596;46.826;8.650;2022-07-29T01:37:57;96131.69;;;17.19;100.00
11085;BME280;5596;46.826;8.650;2022-07-29T01:40:31;96120.75;;;17.19;100.00
11085;BME280;5596;46.826;8.650;2022-07-29T01:43:09;96116.41;;;17.18;100.00
11085;BME280;5596;46.826;8.650;2022-07-29T01:45:40;96110.97;;;17.13;100.00
11085;BME280;5596;46.826;8.650;2022-07-29T01:48:12;96129.25;;;17.18;100.00
11085;BME280;5596;46.826;8.650;2022-07-29T01:50:46;96126.22;;;17.24;100.00
11085;BME280;5596;46.826;8.650;2022-07-29T01:53:20;96113.63;;;17.28;100.00
11085;BME280;5596;46.826;8.650;2022-07-29T01:55:48;96122.91;;;17.27;100.00
11085;BME280;5596;46.826;8.650;2022-07-29T01:58:18;96118.28;;;17.28;100.00
11085;BME280;5596;46.826;8.650;2022-07-29T02:00:48;96104.94;;;17.26;100.00
11085;BME280;5596;46.826;8.650;2022-07-29T02:03:17;96099.44;;;17.31;100.00
11085;BME280;5596;46.826;8.650;2022-07-29T02:05:46;96092.91;;;17.27;100.00
11085;BME280;5596;46.826;8.650;2022-07-29T02:08:16;96096.72;;;17.31;100.00
11085;BME280;5596;46.826;8.650;2022-07-29T02:10:46;96098.34;;;17.32;100.00
11085;BME280;5596;46.826;8.650;2022-07-29T02:13:16;96099.41;;;17.36;100.00
11085;BME280;5596;46.826;8.650;2022-07-29T02:15:44;96105.97;;;17.40;100.00
11085;BME280;5596;46.826;8.650;2022-07-29T02:18:17;96104.59;;;17.43;100.00
11085;BME280;5596;46.826;8.650;2022-07-29T02:20:47;96107.84;;;17.45;100.00
11085;BME280;5596;46.826;8.650;2022-07-29T02:23:19;96096.69;;;17.42;100.00
11085;BME280;5596;46.826;8.650;2022-07-29T02:25:48;96102.69;;;17.44;100.00
11085;BME280;5596;46.826;8.650;2022-07-29T02:28:17;96103.81;;;17.32;100.00
11085;BME280;5596;46.826;8.650;2022-07-29T02:30:45;96103.31;;;17.25;100.00
11085;BME280;5596;46.826;8.650;2022-07-29T02:33:16;96102.75;;;17.18;100.00
11085;BME280;5596;46.826;8.650;2022-07-29T02:35:46;96091.84;;;17.18;100.00
11085;BME280;5596;46.826;8.650;2022-07-29T02:38:15;96091.28;;;17.21;100.00
11085;BME280;5596;46.826;8.650;2022-07-29T02:41:03;96099.47;;;17.26;100.00
11085;BME280;5596;46.826;8.650;2022-07-29T02:43:32;96094.53;;;17.28;100.00
11085;BME280;5596;46.826;8.650;2022-07-29T02:46:02;96099.25;;;17.18;100.00
11085;BME280;5596;46.826;8.650;2022-07-29T02:48:37;96090.22;;;17.12;100.00
11085;BME280;5596;46.826;8.650;2022-07-29T02:51:08;96099.50;;;17.11;100.00
11085;BME280;5596;46.826;8.650;2022-07-29T02:53:38;96094.34;;;17.10;100.00
11085;BME280;5596;46.826;8.650;2022-07-29T02:56:09;96091.91;;;17.08;100.00
11085;BME280;5596;46.826;8.650;2022-07-29T02:58:40;96097.06;;;17.05;100.00
11085;BME280;5596;46.826;8.650;2022-07-29T03:01:11;96089.69;;;17.10;100.00
11085;BME280;5596;46.826;8.650;2022-07-29T03:03:43;96094.88;;;17.17;100.00
11085;BME280;5596;46.826;8.650;2022-07-29T03:06:13;96094.59;;;17.13;100.00
11085;BME280;5596;46.826;8.650;2022-07-29T03:08:41;96096.50;;;17.13;100.00
11085;BME280;5596;46.826;8.650;2022-07-29T03:11:09;96097.88;;;17.10;100.00
11085;BME280;5596;46.826;8.650;2022-07-29T03:13:37;96102.22;;;17.11;100.00
11085;BME280;5596;46.826;8.650;2022-07-29T03:16:04;96099.25;;;17.08;100.00
11085;BME280;5596;46.826;8.650;2022-07-29T03:18:33;96101.19;;;17.07;100.00
11085;BME280;5596;46.826;8.650;2022-07-29T03:21:03;96099.56;;;16.96;100.00
11085;BME280;5596;46.826;8.650;2022-07-29T03:23:30;96097.38;;;16.93;100.00
11085;BME280;5596;46.826;8.650;2022-07-29T03:25:57;96106.66;;;16.92;100.00
11085;BME280;5596;46.826;8.650;2022-07-29T03:28:24;96109.66;;;16.90;100.00
11085;BME280;5596;46.826;8.650;2022-07-29T03:30:53;96108.84;;;16.85;100.00
11085;BME280;5596;46.826;8.650;2022-07-29T03:33:20;96115.41;;;16.79;100.00
11085;BME280;5596;46.826;8.650;2022-07-29T03:35:47;96118.13;;;16.79;100.00
11085;BME280;5596;46.826;8.650;2022-07-29T03:38:16;96127.41;;;16.83;100.00
11085;BME280;5596;46.826;8.650;2022-07-29T03:40:48;96112.41;;;16.80;100.00
11085;BME280;5596;46.826;8.650;2022-07-29T03:43:17;96118.13;;;16.79;100.00
11085;BME280;5596;46.826;8.650;2022-07-29T03:45:47;96115.16;;;16.65;100.00
11085;BME280;5596;46.826;8.650;2022-07-29T03:48:18;96118.72;;;16.66;100.00
11085;BME280;5596;46.826;8.650;2022-07-29T03:50:46;96122.78;;;16.73;100.00
11085;BME280;5596;46.826;8.650;2022-07-29T03:53:13;96115.41;;;16.79;100.00
11085;BME280;5596;46.826;8.650;2022-07-29T03:55:45;96119.22;;;16.88;100.00
11085;BME280;5596;46.826;8.650;2022-07-29T03:58:14;96119.75;;;16.85;100.00
11085;BME280;5596;46.826;8.650;2022-07-29T04:00:43;96136.66;;;16.92;100.00
11085;BME280;5596;46.826;8.650;2022-07-29T04:03:10;96136.09;;;16.95;100.00
11085;BME280;5596;46.826;8.650;2022-07-29T04:05:38;96141.84;;;16.98;100.00
11085;BME280;5596;46.826;8.650;2022-07-29T04:08:05;96152.47;;;17.00;100.00
11085;BME280;5596;46.826;8.650;2022-07-29T04:10:32;96148.09;;;16.99;100.00
11085;BME280;5596;46.826;8.650;2022-07-29T04:13:01;96148.66;;;16.91;100.00
11085;BME280;5596;46.826;8.650;2022-07-29T04:15:28;96161.75;;;16.89;100.00
11085;BME280;5596;46.826;8.650;2022-07-29T04:17:55;96153.03;;;16.82;100.00
11085;BME280;5596;46.826;8.650;2022-07-29T04:20:22;96156.84;;;16.81;100.00
11085;BME280;5596;46.826;8.650;2022-07-29T04:22:49;96151.94;;;16.83;100.00
11085;BME280;5596;46.826;8.650;2022-07-29T04:25:16;96162.03;;;16.92;100.00
11085;BME280;5596;46.826;8.650;2022-07-29T04:27:43;96169.94;;;16.99;100.00
11085;BME280;5596;46.826;8.650;2022-07-29T04:30:25;96179.44;;;17.01;100.00
11085;BME280;5596;46.826;8.650;2022-07-29T04:32:52;96185.19;;;17.05;100.00
11085;BME280;5596;46.826;8.650;2022-07-29T04:35:20;96173.47;;;16.94;100.00
11085;BME280;5596;46.826;8.650;2022-07-29T04:37:47;96172.69;;;16.84;100.00
11085;BME280;5596;46.826;8.650;2022-07-29T04:40:14;96171.03;;;16.78;100.00
11085;BME280;5596;46.826;8.650;2022-07-29T04:42:41;96185.19;;;16.85;100.00
11085;BME280;5596;46.826;8.650;2022-07-29T04:45:09;96185.47;;;16.93;100.00
11085;BME280;5596;46.826;8.650;2022-07-29T04:47:37;96189.28;;;16.97;100.00
11085;BME280;5596;46.826;8.650;2022-07-29T04:50:05;96197.22;;;16.89;100.00
11085;BME280;5596;46.826;8.650;2022-07-29T04:52:32;96200.47;;;16.81;100.00
11085;BME280;5596;46.826;8.650;2022-07-29T04:55:00;96192.28;;;16.86;100.00
11085;BME280;5596;46.826;8.650;2022-07-29T04:57:27;96192.28;;;16.86;100.00
11085;BME280;5596;46.826;8.650;2022-07-29T04:59:54;96191.47;;;16.90;100.00
11085;BME280;5596;46.826;8.650;2022-07-29T05:02:21;96178.91;;;16.94;100.00
11085;BME280;5596;46.826;8.650;2022-07-29T05:04:50;96186.84;;;17.01;100.00
11085;BME280;5596;46.826;8.650;2022-07-29T05:07:17;96186.81;;;17.06;100.00
11085;BME280;5596;46.826;8.650;2022-07-29T05:09:44;96189.25;;;17.13;100.00
11085;BME280;5596;46.826;8.650;2022-07-29T05:12:11;96185.44;;;17.14;100.00
11085;BME280;5596;46.826;8.650;2022-07-29T05:14:38;96187.34;;;17.13;100.00
11085;BME280;5596;46.826;8.650;2022-07-29T05:17:05;96178.63;;;17.16;100.00
11085;BME280;5596;46.826;8.650;2022-07-29T05:19:32;96178.06;;;17.24;100.00
11085;BME280;5596;46.826;8.650;2022-07-29T05:22:01;96170.41;;;17.31;100.00
11085;BME280;5596;46.826;8.650;2022-07-29T05:24:28;96171.78;;;17.29;100.00
11085;BME280;5596;46.826;8.650;2022-07-29T05:26:56;96169.84;;;17.39;100.00
11085;BME280;5596;46.826;8.650;2022-07-29T05:29:23;96169.22;;;17.53;100.00
11085;BME280;5596;46.826;8.650;2022-07-29T05:31:50;96165.91;;;17.61;100.00
11085;BME280;5596;46.826;8.650;2022-07-29T05:34:18;96161.84;;;17.58;100.00
11085;BME280;5596;46.826;8.650;2022-07-29T05:36:45;96161.84;;;17.58;100.00
11085;BME280;5596;46.826;8.650;2022-07-29T05:39:14;96161.59;;;17.65;100.00
11085;BME280;5596;46.826;8.650;2022-07-29T05:41:41;96172.50;;;17.65;100.00
11085;BME280;5596;46.826;8.650;2022-07-29T05:44:08;96159.38;;;17.72;100.00
11085;BME280;5596;46.826;8.650;2022-07-29T05:46:35;96163.78;;;17.68;100.00
11085;BME280;5596;46.826;8.650;2022-07-29T05:49:02;96155.00;;;17.71;100.00
11085;BME280;5596;46.826;8.650;2022-07-29T05:51:29;96152.81;;;17.73;100.00
11085;BME280;5596;46.826;8.650;2022-07-29T05:53:56;96154.97;;;17.81;100.00
11085;BME280;5596;46.826;8.650;2022-07-29T05:56:25;96145.94;;;17.86;100.00
11085;BME280;5596;46.826;8.650;2022-07-29T05:58:52;96149.44;;;17.91;100.00
11085;BME280;5596;46.826;8.650;2022-07-29T06:01:19;96152.72;;;17.93;100.00
11085;BME280;5596;46.826;8.650;2022-07-29T06:03:46;96148.31;;;18.02;100.00
11085;BME280;5596;46.826;8.650;2022-07-29T06:06:13;96146.06;;;18.09;100.00
11085;BME280;5596;46.826;8.650;2022-07-29T06:08:40;96156.41;;;18.18;100.00
11085;BME280;5596;46.826;8.650;2022-07-29T06:11:07;96150.56;;;18.29;100.00
11085;BME280;5596;46.826;8.650;2022-07-29T06:13:36;96144.81;;;18.36;100.00
11085;BME280;5596;46.826;8.650;2022-07-29T06:16:04;96144.69;;;18.46;100.00
11085;BME280;5596;46.826;8.650;2022-07-29T06:18:31;96146.84;;;18.59;100.00
11085;BME280;5596;46.826;8.650;2022-07-29T06:20:58;96141.66;;;18.58;100.00
11085;BME280;5596;46.826;8.650;2022-07-29T06:23:25;96132.53;;;18.67;100.00
11085;BME280;5596;46.826;8.650;2022-07-29T06:25:52;96139.84;;;18.77;100.00
11085;BME280;5596;46.826;8.650;2022-07-29T06:28:19;96135.34;;;18.91;100.00
11085;BME280;5596;46.826;8.650;2022-07-29T06:30:48;96144.34;;;18.97;100.00
11085;BME280;5596;46.826;8.650;2022-07-29T06:33:18;96146.94;;;19.07;100.00
11085;BME280;5596;46.826;8.650;2022-07-29T06:35:46;96132.13;;;19.13;100.00
11085;BME280;5596;46.826;8.650;2022-07-29T06:38:15;96138.28;;;19.23;100.00
11085;BME280;5596;46.826;8.650;2022-07-29T06:40:42;96141.44;;;19.36;100.00
11085;BME280;5596;46.826;8.650;2022-07-29T06:43:29;96151.84;;;19.39;100.00
11085;BME280;5596;46.826;8.650;2022-07-29T06:45:59;96157.88;;;19.36;100.00
11085;BME280;5596;46.826;8.650;2022-07-29T06:48:27;96156.13;;;19.45;100.00
11085;BME280;5596;46.826;8.650;2022-07-29T06:50:55;96151.59;;;19.35;100.00
11085;BME280;5596;46.826;8.650;2022-07-29T06:53:22;96156.66;;;19.47;100.00
11085;BME280;5596;46.826;8.650;2022-07-29T06:55:50;96148.13;;;19.53;100.00
11085;BME280;5596;46.826;8.650;2022-07-29T06:58:17;96160.47;;;19.75;100.00
11085;BME280;5596;46.826;8.650;2022-07-29T07:00:55;96192.50;;;19.98;100.00
11085;BME280;5596;46.826;8.650;2022-07-29T07:03:24;96193.19;;;20.09;100.00
11085;BME280;5596;46.826;8.650;2022-07-29T07:05:52;96190.69;;;20.12;100.00
11085;BME280;5596;46.826;8.650;2022-07-29T07:08:21;96208.97;;;20.17;100.00
11085;BME280;5596;46.826;8.650;2022-07-29T07:10:49;96217.88;;;20.27;100.00
11085;BME280;5596;46.826;8.650;2022-07-29T07:13:16;96223.16;;;20.24;100.00
11085;BME280;5596;46.826;8.650;2022-07-29T07:15:43;96225.25;;;20.08;100.00
11085;BME280;5596;46.826;8.650;2022-07-29T07:18:13;96223.13;;;20.05;100.00
11085;BME280;5596;46.826;8.650;2022-07-29T07:20:42;96227.69;;;20.10;100.00
11085;BME280;5596;46.826;8.650;2022-07-29T07:23:10;96230.72;;;20.08;100.00
11085;BME280;5596;46.826;8.650;2022-07-29T07:25:37;96238.66;;;20.10;100.00
11085;BME280;5596;46.826;8.650;2022-07-29T07:28:05;96230.72;;;20.32;100.00
11085;BME280;5596;46.826;8.650;2022-07-29T07:30:32;96230.53;;;20.47;100.00
11085;BME280;5596;46.826;8.650;2022-07-29T07:32:59;96235.13;;;20.52;100.00
11085;BME280;5596;46.826;8.650;2022-07-29T07:35:26;96228.16;;;20.59;100.00
11085;BME280;5596;46.826;8.650;2022-07-29T07:37:55;96232.97;;;20.67;100.00
11085;BME280;5596;46.826;8.650;2022-07-29T07:40:23;96228.91;;;20.65;100.00
11085;BME280;5596;46.826;8.650;2022-07-29T07:42:50;96236.75;;;20.71;100.00
11085;BME280;5596;46.826;8.650;2022-07-29T07:45:17;96241.81;;;20.83;100.00
11085;BME280;5596;46.826;8.650;2022-07-29T07:47:44;96233.91;;;20.95;99.25
11085;BME280;5596;46.826;8.650;2022-07-29T07:50:12;96233.16;;;21.08;99.19
11085;BME280;5596;46.826;8.650;2022-07-29T07:52:49;96220.53;;;21.26;100.00
11085;BME280;5596;46.826;8.650;2022-07-29T07:55:19;96224.44;;;21.39;100.00
11085;BME280;5596;46.826;8.650;2022-07-29T07:57:46;96220.03;;;21.38;100.00
11085;BME280;5596;46.826;8.650;2022-07-29T08:00:14;96211.00;;;21.37;95.73
11085;BME280;5596;46.826;8.650;2022-07-29T08:02:42;96205.78;;;21.36;95.85
11085;BME280;5596;46.826;8.650;2022-07-29T08:05:11;96199.41;;;21.54;95.01
11085;BME280;5596;46.826;8.650;2022-07-29T08:07:42;96204.94;;;21.81;92.55
11085;BME280;5596;46.826;8.650;2022-07-29T08:10:09;96202.00;;;21.92;92.73
11085;BME280;5596;46.826;8.650;2022-07-29T08:12:38;96199.75;;;22.07;95.25
11085;BME280;5596;46.826;8.650;2022-07-29T08:15:07;96191.41;;;22.12;91.87
11085;BME280;5596;46.826;8.650;2022-07-29T08:17:34;96202.56;;;22.30;91.56
11085;BME280;5596;46.826;8.650;2022-07-29T08:20:01;96198.88;;;22.48;89.64
11085;BME280;5596;46.826;8.650;2022-07-29T08:22:28;96216.22;;;22.84;87.51
11085;BME280;5596;46.826;8.650;2022-07-29T08:24:55;96218.91;;;22.98;86.15
11085;BME280;5596;46.826;8.650;2022-07-29T08:27:23;96217.31;;;23.19;84.12
11085;BME280;5596;46.826;8.650;2022-07-29T08:29:53;96204.78;;;23.35;84.46
11085;BME280;5596;46.826;8.650;2022-07-29T08:32:21;96201.75;;;23.23;84.12
11085;BME280;5596;46.826;8.650;2022-07-29T08:34:48;96212.22;;;22.90;84.42
11085;BME280;5596;46.826;8.650;2022-07-29T08:37:15;96214.59;;;23.06;86.29
11085;BME280;5596;46.826;8.650;2022-07-29T08:39:42;96228.56;;;23.31;84.49
11085;BME280;5596;46.826;8.650;2022-07-29T08:42:10;96221.56;;;23.25;80.79
11085;BME280;5596;46.826;8.650;2022-07-29T08:44:38;96212.66;;;23.28;80.15
11085;BME280;5596;46.826;8.650;2022-07-29T08:47:07;96213.84;;;23.36;79.33
11085;BME280;5596;46.826;8.650;2022-07-29T08:49:34;96216.91;;;23.34;80.47
11085;BME280;5596;46.826;8.650;2022-07-29T08:52:02;96208.28;;;23.27;81.69
11085;BME280;5596;46.826;8.650;2022-07-29T08:54:30;96207.78;;;23.25;82.25
11085;BME280;5596;46.826;8.650;2022-07-29T08:56:58;96218.34;;;23.32;83.16
11085;BME280;5596;46.826;8.650;2022-07-29T08:59:27;96212.34;;;23.52;82.64
11085;BME280;5596;46.826;8.650;2022-07-29T09:01:57;96208.00;;;23.60;81.69
11085;BME280;5596;46.826;8.650;2022-07-29T09:04:30;96214.84;;;24.02;82.15
11085;BME280;5596;46.826;8.650;2022-07-29T09:07:04;96211.25;;;24.41;78.84
11085;BME280;5596;46.826;8.650;2022-07-29T09:09:33;96209.69;;;24.74;78.61
11085;BME280;5596;46.826;8.650;2022-07-29T09:12:01;96210.66;;;24.96;77.07
11085;BME280;5596;46.826;8.650;2022-07-29T09:14:29;96207.56;;;24.80;75.37
11085;BME280;5596;46.826;8.650;2022-07-29T09:16:56;96210.06;;;24.25;79.63
11085;BME280;5596;46.826;8.650;2022-07-29T09:19:26;96220.06;;;24.12;79.92
11085;BME280;5596;46.826;8.650;2022-07-29T09:21:55;96214.28;;;23.83;81.50
11085;BME280;5596;46.826;8.650;2022-07-29T09:24:35;96221.72;;;23.82;83.66
11085;BME280;5596;46.826;8.650;2022-07-29T09:27:08;96208.16;;;23.94;82.41
11085;BME280;5596;46.826;8.650;2022-07-29T09:29:36;96203.78;;;24.33;77.66
11085;BME280;5596;46.826;8.650;2022-07-29T09:32:08;96195.69;;;24.88;76.04
11085;BME280;5596;46.826;8.650;2022-07-29T09:34:36;96194.69;;;25.27;73.23
11085;BME280;5596;46.826;8.650;2022-07-29T09:37:05;96187.31;;;25.66;74.58
11085;BME280;5596;46.826;8.650;2022-07-29T09:39:33;96193.47;;;25.71;70.49
11085;BME280;5596;46.826;8.650;2022-07-29T09:42:03;96180.81;;;25.53;70.84
11085;BME280;5596;46.826;8.650;2022-07-29T09:44:44;96184.47;;;25.27;72.78
11085;BME280;5596;46.826;8.650;2022-07-29T09:47:12;96185.31;;;24.94;70.98
11085;BME280;5596;46.826;8.650;2022-07-29T09:49:54;96181.88;;;24.62;71.85
11085;BME280;5596;46.826;8.650;2022-07-29T09:52:25;96179.94;;;24.54;74.59
11085;BME280;5596;46.826;8.650;2022-07-29T09:54:54;96173.75;;;24.40;73.72
11085;BME280;5596;46.826;8.650;2022-07-29T09:57:31;96178.94;;;24.24;75.36
11085;BME280;5596;46.826;8.650;2022-07-29T09:59:59;96172.53;;;24.15;74.98
11085;BME280;5596;46.826;8.650;2022-07-29T10:02:31;96178.03;;;24.06;79.47
11085;BME280;5596;46.826;8.650;2022-07-29T10:04:59;96175.63;;;24.13;78.94
11085;BME280;5596;46.826;8.650;2022-07-29T10:07:43;96164.78;;;24.26;79.86
11085;BME280;5596;46.826;8.650;2022-07-29T10:10:10;96161.72;;;24.36;79.45
11085;BME280;5596;46.826;8.650;2022-07-29T10:12:49;96158.03;;;24.66;78.51
11085;BME280;5596;46.826;8.650;2022-07-29T10:15:17;96164.00;;;24.77;78.25
11085;BME280;5596;46.826;8.650;2022-07-29T10:17:45;96159.31;;;24.77;77.05
11085;BME280;5596;46.826;8.650;2022-07-29T10:20:12;96171.47;;;24.85;76.99
11085;BME280;5596;46.826;8.650;2022-07-29T10:22:41;96160.00;;;24.92;75.78
11085;BME280;5596;46.826;8.650;2022-07-29T10:25:10;96159.00;;;25.05;74.80
11085;BME280;5596;46.826;8.650;2022-07-29T10:27:37;96147.59;;;25.15;74.95
11085;BME280;5596;46.826;8.650;2022-07-29T10:30:06;96144.03;;;25.14;73.94
11085;BME280;5596;46.826;8.650;2022-07-29T10:32:51;96139.13;;;25.20;72.36
11085;BME280;5596;46.826;8.650;2022-07-29T10:35:43;96143.19;;;25.22;70.75
11085;BME280;5596;46.826;8.650;2022-07-29T10:41:39;96146.72;;;25.40;68.84
11085;BME280;5596;46.826;8.650;2022-07-29T10:44:17;96150.94;;;25.38;71.16
11085;BME280;5596;46.826;8.650;2022-07-29T10:46:46;96142.03;;;25.32;69.00
11085;BME280;5596;46.826;8.650;2022-07-29T10:49:15;96135.91;;;25.09;70.18
11085;BME280;5596;46.826;8.650;2022-07-29T10:51:53;96136.06;;;25.04;71.05
11085;BME280;5596;46.826;8.650;2022-07-29T10:54:40;96142.44;;;24.96;71.04
11085;BME280;5596;46.826;8.650;2022-07-29T10:57:18;96135.59;;;24.76;71.01
11085;BME280;5596;46.826;8.650;2022-07-29T10:59:47;96140.66;;;24.74;73.08
11085;BME280;5596;46.826;8.650;2022-07-29T11:02:44;96136.25;;;24.82;73.31
11085;BME280;5596;46.826;8.650;2022-07-29T11:05:14;96145.34;;;24.82;75.04
11085;BME280;5596;46.826;8.650;2022-07-29T11:10:43;96140.63;;;24.83;77.00
11085;BME280;5596;46.826;8.650;2022-07-29T11:13:12;96138.69;;;24.83;78.75
11085;BME280;5596;46.826;8.650;2022-07-29T11:15:55;96126.84;;;24.74;93.26
11085;BME280;5596;46.826;8.650;2022-07-29T11:18:22;96130.25;;;24.63;89.03
11085;BME280;5596;46.826;8.650;2022-07-29T11:20:51;96127.97;;;24.47;92.88
11085;BME280;5596;46.826;8.650;2022-07-29T11:23:21;96126.59;;;24.02;98.46
11085;BME280;5596;46.826;8.650;2022-07-29T11:26:18;96128.25;;;23.63;100.00
11085;BME280;5596;46.826;8.650;2022-07-29T11:28:59;96132.00;;;23.36;100.00
11085;BME280;5596;46.826;8.650;2022-07-29T11:31:36;96140.34;;;23.23;100.00
11085;BME280;5596;46.826;8.650;2022-07-29T11:34:24;96131.56;;;23.12;100.00
11085;BME280;5596;46.826;8.650;2022-07-29T11:37:22;96134.69;;;22.97;100.00
11085;BME280;5596;46.826;8.650;2022-07-29T11:40:16;96139.34;;;22.88;100.00
11085;BME280;5596;46.826;8.650;2022-07-29T11:42:49;96141.16;;;22.92;100.00
11085;BME280;5596;46.826;8.650;2022-07-29T11:45:22;96145.69;;;22.97;100.00
11085;BME280;5596;46.826;8.650;2022-07-29T11:47:56;96144.09;;;22.96;100.00
11085;BME280;5596;46.826;8.650;2022-07-29T11:50:31;96143.16;;;22.78;100.00
11085;BME280;5596;46.826;8.650;2022-07-29T11:52:59;96148.75;;;22.73;100.00
11085;BME280;5596;46.826;8.650;2022-07-29T11:55:28;96166.06;;;22.74;100.00
11085;BME280;5596;46.826;8.650;2022-07-29T11:57:58;96155.81;;;22.65;100.00
11085;BME280;5596;46.826;8.650;2022-07-29T12:00:29;96160.94;;;22.58;100.00
11085;BME280;5596;46.826;8.650;2022-07-29T12:02:58;96160.34;;;22.48;100.00
11085;BME280;5596;46.826;8.650;2022-07-29T12:05:38;96169.09;;;22.27;100.00
11085;BME280;5596;46.826;8.650;2022-07-29T12:08:11;96166.56;;;22.17;100.00
11085;BME280;5596;46.826;8.650;2022-07-29T12:10:39;96182.88;;;22.00;100.00
11085;BME280;5596;46.826;8.650;2022-07-29T12:13:07;96195.38;;;21.93;100.00
11085;BME280;5596;46.826;8.650;2022-07-29T12:15:36;96209.63;;;21.67;100.00
11085;BME280;5596;46.826;8.650;2022-07-29T12:18:13;96220.81;;;21.57;100.00
11085;BME280;5596;46.826;8.650;2022-07-29T12:20:40;96233.53;;;21.21;100.00
11085;BME280;5596;46.826;8.650;2022-07-29T12:23:08;96250.38;;;20.95;100.00
11085;BME280;5596;46.826;8.650;2022-07-29T12:25:38;96276.28;;;20.70;100.00
11085;BME280;5596;46.826;8.650;2022-07-29T12:28:07;96297.53;;;20.60;100.00
11085;BME280;5596;46.826;8.650;2022-07-29T12:30:44;96309.41;;;20.55;100.00
11085;BME280;5596;46.826;8.650;2022-07-29T12:33:17;96327.28;;;20.53;100.00
11085;BME280;5596;46.826;8.650;2022-07-29T12:35:48;96338.91;;;20.45;100.00
11085;BME280;5596;46.826;8.650;2022-07-29T12:38:16;96357.44;;;20.29;100.00
11085;BME280;5596;46.826;8.650;2022-07-29T12:40:45;96361.97;;;20.15;100.00
11085;BME280;5596;46.826;8.650;2022-07-29T12:43:14;96371.78;;;20.21;100.00
11085;BME280;5596;46.826;8.650;2022-07-29T12:45:45;96377.91;;;20.13;100.00
11085;BME280;5596;46.826;8.650;2022-07-29T12:48:13;96365.81;;;20.14;100.00
11085;BME280;5596;46.826;8.650;2022-07-29T12:50:54;96374.69;;;20.06;100.00
11085;BME280;5596;46.826;8.650;2022-07-29T12:53:22;96376.41;;;19.96;100.00
11085;BME280;5596;46.826;8.650;2022-07-29T12:55:50;96379.31;;;19.81;100.00
11085;BME280;5596;46.826;8.650;2022-07-29T12:58:29;96382.28;;;19.85;100.00
11085;BME280;5596;46.826;8.650;2022-07-29T13:01:08;96386.25;;;19.69;100.00
11085;BME280;5596;46.826;8.650;2022-07-29T13:03:44;96395.16;;;19.50;100.00
11085;BME280;5596;46.826;8.650;2022-07-29T13:06:32;96390.28;;;19.47;100.00
11085;BME280;5596;46.826;8.650;2022-07-29T13:09:02;96391.88;;;19.48;100.00
11085;BME280;5596;46.826;8.650;2022-07-29T13:11:31;96403.31;;;19.60;100.00
11085;BME280;5596;46.826;8.650;2022-07-29T13:13:58;96393.94;;;19.67;100.00
11085;BME280;5596;46.826;8.650;2022-07-29T13:16:27;96396.06;;;19.75;100.00
11085;BME280;5596;46.826;8.650;2022-07-29T13:19:05;96409.97;;;19.83;100.00
11085;BME280;5596;46.826;8.650;2022-07-29T13:21:33;96407.47;;;19.87;100.00
11085;BME280;5596;46.826;8.650;2022-07-29T13:24:00;96406.03;;;19.94;100.00